createdAt,value
2022-09-23T00:01:17.020Z,11.30
2022-09-23T00:03:46.411Z,11.40
2022-09-23T00:06:16.390Z,10.80
2022-09-23T00:08:44.577Z,11.65
2022-09-23T00:11:14.910Z,10.18
2022-09-23T00:13:43.899Z,10.13
2022-09-23T00:16:13.881Z,12.68
2022-09-23T00:18:41.217Z,11.87
2022-09-23T00:21:11.279Z,11.60
2022-09-23T00:23:41.200Z,10.53
2022-09-23T00:26:09.918Z,10.53
2022-09-23T00:28:38.764Z,10.77
2022-09-23T00:31:08.977Z,11.25
2022-09-23T00:33:35.977Z,11.50
2022-09-23T00:36:05.241Z,10.15
2022-09-23T00:38:34.578Z,10.10
2022-09-23T00:41:01.861Z,11.65
2022-09-23T00:43:41.613Z,11.82
2022-09-23T00:46:10.755Z,12.77
2022-09-23T00:48:41.627Z,13.20
2022-09-23T00:53:38.211Z,11.75
2022-09-23T00:56:08.537Z,12.68
2022-09-23T00:58:37.804Z,12.15
2022-09-23T01:01:05.605Z,12.20
2022-09-23T01:03:32.866Z,12.93
2022-09-23T01:06:00.136Z,12.73
2022-09-23T01:08:28.795Z,12.82
2022-09-23T01:11:01.480Z,12.40
2022-09-23T01:13:35.186Z,13.20
2022-09-23T01:16:11.457Z,13.55
2022-09-23T01:19:22.232Z,12.43
2022-09-23T01:22:08.641Z,12.63
2022-09-23T01:24:47.752Z,10.55
2022-09-23T01:27:29.148Z,9.70
2022-09-23T01:30:07.774Z,9.82
2022-09-23T01:32:53.146Z,14.05
2022-09-23T01:36:01.133Z,13.90
2022-09-23T01:39:00.569Z,15.18
2022-09-23T01:41:47.383Z,16.40
2022-09-23T01:44:30.473Z,14.38
2022-09-23T01:47:02.750Z,14.15
2022-09-23T01:49:52.224Z,13.43
2022-09-23T01:52:39.359Z,13.10
2022-09-23T01:55:29.487Z,12.35
2022-09-23T01:58:04.061Z,10.67
2022-09-23T02:00:37.077Z,11.48
2022-09-23T02:03:17.643Z,10.73
2022-09-23T02:05:52.897Z,10.93
2022-09-23T02:08:29.875Z,13.32
2022-09-23T02:11:05.039Z,12.05
2022-09-23T02:13:40.375Z,10.88
2022-09-23T02:16:15.733Z,13.95
2022-09-23T02:18:52.455Z,11.18
2022-09-23T02:21:22.174Z,11.88
2022-09-23T02:24:00.389Z,15.90
2022-09-23T02:26:33.514Z,16.45
2022-09-23T02:29:24.978Z,19.85
2022-09-23T02:32:01.991Z,18.10
2022-09-23T02:35:01.365Z,19.45
2022-09-23T02:37:42.933Z,18.20
2022-09-23T02:40:46.334Z,18.33
2022-09-23T02:43:28.455Z,18.20
2022-09-23T02:45:56.450Z,14.27
2022-09-23T02:48:30.882Z,14.82
2022-09-23T02:51:02.535Z,13.77
2022-09-23T02:53:34.168Z,14.35
2022-09-23T02:56:02.230Z,14.18
2022-09-23T02:58:30.385Z,14.93
2022-09-23T03:01:06.399Z,17.48
2022-09-23T03:03:40.917Z,15.27
2022-09-23T03:06:24.503Z,15.55
2022-09-23T03:08:58.751Z,19.33
2022-09-23T03:11:26.604Z,18.40
2022-09-23T03:14:20.186Z,19.95
2022-09-23T03:17:07.426Z,20.23
2022-09-23T03:19:43.389Z,21.30
2022-09-23T03:22:19.297Z,20.75
2022-09-23T03:24:53.761Z,18.55
2022-09-23T03:27:27.007Z,21.52
2022-09-23T03:29:55.659Z,20.70
2022-09-23T03:32:28.198Z,20.90
2022-09-23T03:35:00.319Z,20.05
2022-09-23T03:37:47.573Z,19.63
2022-09-23T03:40:27.142Z,19.23
2022-09-23T03:42:59.118Z,19.33
2022-09-23T03:45:33.568Z,19.20
2022-09-23T03:48:01.486Z,17.52
2022-09-23T03:50:29.137Z,19.42
2022-09-23T03:52:56.068Z,18.33
2022-09-23T03:55:23.025Z,19.42
2022-09-23T03:57:49.901Z,19.58
2022-09-23T04:00:17.027Z,20.15
2022-09-23T04:02:44.550Z,19.08
2022-09-23T04:05:13.383Z,19.67
2022-09-23T04:07:41.357Z,16.77
2022-09-23T04:10:10.197Z,13.90
2022-09-23T04:12:37.706Z,16.65
2022-09-23T04:15:05.379Z,17.42
2022-09-23T04:17:32.341Z,18.58
2022-09-23T04:19:59.297Z,17.58
2022-09-23T04:22:26.520Z,18.02
2022-09-23T04:24:53.493Z,16.27
2022-09-23T04:27:23.192Z,18.45
2022-09-23T04:29:50.109Z,17.95
2022-09-23T04:32:17.088Z,19.33
2022-09-23T04:34:46.755Z,16.08
2022-09-23T04:37:13.889Z,18.17
2022-09-23T04:39:40.843Z,20.10
2022-09-23T04:42:08.000Z,20.25
2022-09-23T04:44:35.232Z,16.67
2022-09-23T04:47:02.260Z,16.38
2022-09-23T04:49:30.310Z,18.30
2022-09-23T04:51:57.165Z,22.45
2022-09-23T04:54:24.110Z,21.52
2022-09-23T04:56:51.059Z,24.67
2022-09-23T04:59:18.041Z,25.85
2022-09-23T05:01:45.006Z,23.42
2022-09-23T05:04:14.367Z,24.15
2022-09-23T05:06:44.165Z,24.70
2022-09-23T05:09:15.887Z,25.30
2022-09-23T05:11:42.880Z,25.20
2022-09-23T05:14:10.238Z,20.15
2022-09-23T05:16:37.494Z,28.65
2022-09-23T05:19:04.519Z,25.13
2022-09-23T05:21:31.854Z,26.38
2022-09-23T05:24:01.036Z,24.30
2022-09-23T05:26:32.534Z,24.65
2022-09-23T05:29:00.364Z,24.27
2022-09-23T05:31:29.159Z,26.35
2022-09-23T05:33:59.121Z,25.25
2022-09-23T05:36:27.860Z,27.38
2022-09-23T05:38:57.159Z,27.42
2022-09-23T05:41:25.630Z,24.88
2022-09-23T05:43:54.319Z,26.52
2022-09-23T05:46:28.228Z,27.70
2022-09-23T05:49:02.515Z,23.45
2022-09-23T05:51:31.488Z,22.98
2022-09-23T05:53:59.887Z,25.65
2022-09-23T05:56:28.391Z,26.27
2022-09-23T05:58:58.071Z,25.33
2022-09-23T06:01:28.074Z,23.52
2022-09-23T06:03:56.898Z,24.27
2022-09-23T06:06:42.978Z,27.08
2022-09-23T06:09:16.648Z,29.58
2022-09-23T06:11:43.782Z,29.00
2022-09-23T06:14:15.122Z,24.90
2022-09-23T06:16:43.368Z,28.45
2022-09-23T06:19:10.828Z,27.33
2022-09-23T06:21:39.814Z,27.92
2022-09-23T06:24:07.901Z,26.20
2022-09-23T06:26:36.675Z,26.80
2022-09-23T06:29:10.141Z,26.15
2022-09-23T06:31:37.274Z,22.40
2022-09-23T06:34:11.667Z,28.35
2022-09-23T06:36:44.375Z,27.75
2022-09-23T06:39:12.841Z,24.13
2022-09-23T06:41:39.702Z,26.58
2022-09-23T06:44:06.757Z,23.95
2022-09-23T06:46:33.863Z,29.60
2022-09-23T06:49:02.472Z,23.95
2022-09-23T06:51:29.421Z,24.05
2022-09-23T06:53:57.022Z,23.55
2022-09-23T06:56:24.653Z,20.80
2022-09-23T06:58:55.111Z,18.48
2022-09-23T07:01:23.127Z,20.45
2022-09-23T07:03:50.316Z,22.13
2022-09-23T07:06:18.003Z,21.17
2022-09-23T07:08:47.745Z,18.17
2022-09-23T07:11:16.070Z,19.60
2022-09-23T07:13:43.598Z,21.25
2022-09-23T07:16:11.692Z,20.35
2022-09-23T07:18:39.216Z,19.13
2022-09-23T07:21:08.844Z,14.43
2022-09-23T07:23:38.014Z,18.65
2022-09-23T07:26:06.070Z,17.65
2022-09-23T07:28:33.061Z,16.02
2022-09-23T07:31:38.587Z,15.20
2022-09-23T07:34:06.855Z,11.25
2022-09-23T07:36:33.902Z,12.55
2022-09-23T07:39:02.542Z,11.02
2022-09-23T07:41:31.372Z,11.02
2022-09-23T07:44:00.516Z,10.10
2022-09-23T07:46:30.781Z,8.85
2022-09-23T07:48:58.309Z,9.07
2022-09-23T07:51:34.744Z,9.07
2022-09-23T07:54:02.643Z,7.65
2022-09-23T07:56:30.850Z,4.03
2022-09-23T07:59:00.937Z,4.07
2022-09-23T08:01:42.942Z,3.70
2022-09-23T08:04:17.497Z,2.70
2022-09-23T08:06:46.757Z,3.35
2022-09-23T08:09:14.492Z,3.30
2022-09-23T08:11:42.354Z,2.88
2022-09-23T08:14:13.916Z,2.30
2022-09-23T08:16:42.298Z,2.50
2022-09-23T08:19:09.552Z,2.10
2022-09-23T08:21:37.970Z,2.10
2022-09-23T08:24:05.935Z,2.00
2022-09-23T08:26:34.732Z,2.95
2022-09-23T08:29:02.512Z,2.78
2022-09-23T08:31:29.499Z,2.75
2022-09-23T08:33:57.947Z,3.00
2022-09-23T08:36:26.123Z,2.83
2022-09-23T08:38:53.437Z,1.90
2022-09-23T08:41:35.040Z,1.33
2022-09-23T08:44:10.369Z,1.45
2022-09-23T08:46:52.977Z,1.02
2022-09-23T08:49:28.051Z,1.13
2022-09-23T08:51:55.392Z,1.27
2022-09-23T08:54:22.739Z,1.27
2022-09-23T08:56:52.653Z,1.30
2022-09-23T08:59:44.750Z,1.50
2022-09-23T09:02:23.290Z,1.50
2022-09-23T09:04:54.814Z,1.70
2022-09-23T09:07:38.636Z,1.52
2022-09-23T09:10:35.702Z,1.35
2022-09-23T09:13:33.910Z,1.73
2022-09-23T09:16:58.309Z,1.80
2022-09-23T09:19:41.806Z,1.80
2022-09-23T09:22:19.612Z,2.03
2022-09-23T09:24:49.598Z,1.70
2022-09-23T09:27:16.566Z,1.90
2022-09-23T09:29:50.105Z,2.53
2022-09-23T09:32:46.756Z,2.28
2022-09-23T09:35:42.983Z,2.20
2022-09-23T09:38:09.908Z,1.90
2022-09-23T09:40:47.041Z,2.35
2022-09-23T09:43:23.833Z,2.00
2022-09-23T09:46:16.595Z,2.20
2022-09-23T09:49:15.151Z,2.65
2022-09-23T09:51:43.000Z,2.47
2022-09-23T09:54:23.538Z,2.40
2022-09-23T09:56:52.114Z,2.60
2022-09-23T09:59:26.403Z,2.63
2022-09-23T10:02:27.210Z,2.60
2022-09-23T10:05:23.275Z,3.30
2022-09-23T10:07:50.185Z,3.17
2022-09-23T10:10:33.843Z,2.63
2022-09-23T10:13:16.419Z,1.83
2022-09-23T10:15:45.567Z,1.90
2022-09-23T10:18:32.283Z,2.10
2022-09-23T10:21:27.785Z,2.50
2022-09-23T10:24:01.925Z,2.50
2022-09-23T10:26:55.313Z,2.75
2022-09-23T10:29:39.318Z,2.30
2022-09-23T10:32:25.899Z,3.00
2022-09-23T10:35:03.730Z,2.78
2022-09-23T10:37:39.113Z,2.40
2022-09-23T10:40:38.765Z,3.38
2022-09-23T10:43:37.460Z,2.22
2022-09-23T10:46:42.496Z,3.25
2022-09-23T10:49:33.903Z,2.67
2022-09-23T10:52:14.565Z,2.90
2022-09-23T10:55:02.856Z,2.70
2022-09-23T10:57:41.273Z,3.13
2022-09-23T11:00:42.647Z,2.63
2022-09-23T11:03:27.704Z,3.33
2022-09-23T11:06:34.771Z,3.03
2022-09-23T11:09:07.459Z,3.28
2022-09-23T11:12:08.726Z,3.10
2022-09-23T11:14:44.283Z,2.55
2022-09-23T11:17:22.286Z,2.08
2022-09-23T11:20:21.614Z,1.73
2022-09-23T11:23:22.461Z,2.20
2022-09-23T11:26:00.677Z,2.13
2022-09-23T11:28:33.500Z,2.08
2022-09-23T11:31:07.030Z,2.70
2022-09-23T11:33:56.782Z,2.00
2022-09-23T11:36:33.136Z,2.00
2022-09-23T11:39:07.306Z,1.60
2022-09-23T11:41:40.026Z,1.40
2022-09-23T11:44:34.188Z,1.70
2022-09-23T11:47:26.776Z,1.30
2022-09-23T11:50:05.425Z,4.18
2022-09-23T11:52:37.116Z,2.60
2022-09-23T11:55:22.999Z,2.42
2022-09-23T11:57:57.295Z,2.55
2022-09-23T12:00:30.508Z,2.20
2022-09-23T12:03:12.217Z,1.35
2022-09-23T12:05:48.054Z,1.27
2022-09-23T12:08:37.622Z,1.40
2022-09-23T12:11:37.163Z,1.42
2022-09-23T12:14:41.436Z,1.35
2022-09-23T12:17:47.731Z,1.75
2022-09-23T12:20:46.407Z,1.30
2022-09-23T12:23:26.913Z,1.40
2022-09-23T12:25:58.154Z,1.73
2022-09-23T12:28:30.045Z,1.67
2022-09-23T12:31:01.345Z,1.67
2022-09-23T12:33:30.636Z,1.38
2022-09-23T12:36:06.282Z,1.10
2022-09-23T12:38:48.346Z,0.93
2022-09-23T12:41:43.411Z,1.20
2022-09-23T12:44:14.263Z,1.30
2022-09-23T12:49:36.077Z,1.25
2022-09-23T12:52:12.209Z,1.40
2022-09-23T12:54:40.903Z,2.08
2022-09-23T12:57:23.061Z,2.28
2022-09-23T13:00:14.244Z,3.38
2022-09-23T13:02:47.145Z,3.17
2022-09-23T13:05:58.129Z,3.30
2022-09-23T13:08:25.556Z,4.15
2022-09-23T13:11:00.351Z,3.63
2022-09-23T13:13:38.870Z,3.28
2022-09-23T13:16:35.158Z,1.35
2022-09-23T13:19:04.605Z,1.75
2022-09-23T13:21:43.997Z,1.23
2022-09-23T13:24:14.048Z,1.70
2022-09-23T13:26:50.296Z,1.20
2022-09-23T13:29:28.616Z,1.40
2022-09-23T13:31:58.120Z,1.60
2022-09-23T13:34:29.347Z,1.67
2022-09-23T13:36:56.349Z,1.65
2022-09-23T13:39:28.010Z,1.40
2022-09-23T13:42:05.369Z,1.10
2022-09-23T13:44:32.350Z,1.30
2022-09-23T13:47:02.579Z,1.90
2022-09-23T13:49:37.147Z,1.73
2022-09-23T13:52:04.437Z,1.30
2022-09-23T13:54:35.766Z,1.15
2022-09-23T13:57:03.887Z,1.38
2022-09-23T13:59:37.355Z,1.40
2022-09-23T14:02:11.210Z,1.10
2022-09-23T14:04:38.655Z,1.30
2022-09-23T14:07:08.402Z,1.20
2022-09-23T14:09:36.047Z,1.33
2022-09-23T14:12:06.117Z,1.35
2022-09-23T14:14:35.326Z,1.80
2022-09-23T14:17:02.959Z,1.40
2022-09-23T14:19:30.336Z,1.80
2022-09-23T14:21:57.530Z,1.27
2022-09-23T14:24:32.267Z,1.52
2022-09-23T14:27:04.646Z,1.48
2022-09-23T14:29:37.571Z,1.30
2022-09-23T14:32:13.340Z,1.42
2022-09-23T14:34:43.174Z,1.77
2022-09-23T14:37:37.796Z,1.38
2022-09-23T14:40:11.513Z,1.33
2022-09-23T14:42:41.995Z,1.48
2022-09-23T14:45:35.932Z,2.00
2022-09-23T14:48:08.710Z,2.05
2022-09-23T14:50:48.802Z,1.70
2022-09-23T14:53:24.440Z,2.00
2022-09-23T14:55:57.843Z,1.95
2022-09-23T14:58:28.980Z,1.52
2022-09-23T15:01:01.090Z,2.33
2022-09-23T15:03:29.032Z,2.40
2022-09-23T15:06:03.100Z,3.03
2022-09-23T15:08:34.872Z,2.20
2022-09-23T15:11:08.207Z,2.90
2022-09-23T15:13:49.719Z,3.63
2022-09-23T15:16:24.827Z,3.85
2022-09-23T15:18:56.153Z,3.20
2022-09-23T15:21:25.239Z,2.20
2022-09-23T15:23:56.447Z,2.80
2022-09-23T15:26:24.786Z,3.00
2022-09-23T15:28:54.472Z,10.27
2022-09-23T15:31:23.609Z,20.55
2022-09-23T15:33:51.560Z,30.58
2022-09-23T15:36:26.268Z,15.63
2022-09-23T15:38:54.234Z,19.65
2022-09-23T15:41:21.678Z,18.65
2022-09-23T15:43:48.864Z,11.40
2022-09-23T15:46:26.370Z,9.32
2022-09-23T15:48:59.437Z,5.80
2022-09-23T15:51:27.946Z,7.68
2022-09-23T15:53:56.655Z,9.32
2022-09-23T15:56:29.374Z,10.18
2022-09-23T15:58:56.427Z,11.75
2022-09-23T16:01:30.514Z,17.77
2022-09-23T16:03:57.904Z,15.10
2022-09-23T16:06:24.892Z,11.95
2022-09-23T16:08:52.593Z,6.38
2022-09-23T16:11:26.996Z,6.97
2022-09-23T16:13:54.105Z,6.03
2022-09-23T16:16:24.151Z,5.57
2022-09-23T16:18:53.960Z,5.80
2022-09-23T16:21:24.667Z,4.88
2022-09-23T16:23:53.609Z,4.40
2022-09-23T16:26:22.006Z,3.67
2022-09-23T16:28:50.955Z,7.32
2022-09-23T16:31:18.880Z,5.63
2022-09-23T16:33:47.019Z,4.28
2022-09-23T16:36:28.046Z,5.78
2022-09-23T16:38:55.929Z,5.95
2022-09-23T16:41:26.544Z,6.47
2022-09-23T16:43:53.844Z,6.53
2022-09-23T16:46:21.565Z,13.95
2022-09-23T16:48:52.976Z,39.28
2022-09-23T16:51:29.010Z,71.47
2022-09-23T16:53:58.022Z,93.25
2022-09-23T16:56:28.798Z,103.63
2022-09-23T16:58:57.018Z,94.50
2022-09-23T17:01:45.643Z,159.35
2022-09-23T17:04:13.607Z,195.65
2022-09-23T17:06:45.059Z,249.93
2022-09-23T17:09:12.488Z,249.10
2022-09-23T17:11:39.679Z,204.93
2022-09-23T17:14:06.866Z,138.30
2022-09-23T17:16:35.571Z,106.18
2022-09-23T17:19:08.413Z,79.45
2022-09-23T17:21:35.714Z,70.50
2022-09-23T17:24:02.904Z,59.08
2022-09-23T17:26:30.068Z,48.33
2022-09-23T17:28:58.255Z,39.63
2022-09-23T17:31:25.416Z,36.22
2022-09-23T17:33:53.261Z,34.13
2022-09-23T17:36:21.157Z,30.25
2022-09-23T17:38:49.135Z,30.67
2022-09-23T17:41:18.397Z,30.42
2022-09-23T17:43:47.049Z,31.90
2022-09-23T17:46:18.954Z,34.65
2022-09-23T17:48:46.164Z,34.97
2022-09-23T17:51:14.811Z,35.42
2022-09-23T17:53:43.635Z,40.47
2022-09-23T17:56:21.927Z,52.17
2022-09-23T17:58:50.397Z,52.08
2022-09-23T18:01:20.423Z,51.75
2022-09-23T18:03:48.690Z,41.88
2022-09-23T18:06:21.409Z,49.88
2022-09-23T18:08:50.249Z,48.30
2022-09-23T18:11:21.779Z,47.90
2022-09-23T18:13:53.294Z,48.58
2022-09-23T18:16:22.041Z,49.38
2022-09-23T18:19:00.039Z,51.13
2022-09-23T18:21:30.779Z,52.70
2022-09-23T18:24:21.421Z,53.20
2022-09-23T18:26:45.869Z,51.65
2022-09-23T18:29:12.929Z,51.22
2022-09-23T18:31:39.887Z,66.78
2022-09-23T18:34:11.395Z,63.58
2022-09-23T18:36:39.025Z,73.15
2022-09-23T18:39:06.603Z,69.93
2022-09-23T18:41:34.221Z,70.32
2022-09-23T18:44:01.724Z,65.47
2022-09-23T18:46:30.161Z,64.05
2022-09-23T18:49:16.815Z,59.22
2022-09-23T18:51:56.127Z,57.45
2022-09-23T18:54:25.498Z,56.28
2022-09-23T18:56:52.972Z,55.75
2022-09-23T18:59:24.022Z,56.42
2022-09-23T19:01:56.866Z,54.22
2022-09-23T19:04:25.807Z,51.25
2022-09-23T19:06:54.261Z,47.50
2022-09-23T19:09:21.257Z,50.28
2022-09-23T19:11:52.452Z,44.75
2022-09-23T19:14:19.623Z,44.38
2022-09-23T19:16:49.235Z,42.47
2022-09-23T19:19:16.350Z,44.67
2022-09-23T19:21:43.552Z,46.38
2022-09-23T19:24:16.209Z,43.05
2022-09-23T19:26:44.290Z,34.78
2022-09-23T19:29:17.382Z,30.67
2022-09-23T19:31:44.632Z,26.75
2022-09-23T19:34:16.939Z,25.02
2022-09-23T19:36:46.586Z,24.83
2022-09-23T19:39:21.722Z,22.83
2022-09-23T19:41:50.822Z,22.90
2022-09-23T19:44:18.211Z,22.48
2022-09-23T19:46:46.495Z,23.88
2022-09-23T19:49:13.719Z,25.63
2022-09-23T19:51:41.379Z,24.98
2022-09-23T19:54:09.430Z,23.17
2022-09-23T19:56:36.910Z,25.42
2022-09-23T19:59:06.209Z,27.02
2022-09-23T20:01:34.634Z,28.45
2022-09-23T20:04:02.470Z,28.38
2022-09-23T20:06:31.251Z,28.25
2022-09-23T20:09:02.154Z,27.00
2022-09-23T20:11:30.064Z,26.80
2022-09-23T20:14:01.978Z,27.38
2022-09-23T20:16:32.628Z,26.60
2022-09-23T20:19:00.544Z,24.95
2022-09-23T20:21:29.623Z,27.48
2022-09-23T20:23:58.085Z,25.10
2022-09-23T20:26:43.680Z,26.45
2022-09-23T20:29:11.409Z,26.15
2022-09-23T20:31:40.698Z,25.95
2022-09-23T20:34:08.566Z,25.02
2022-09-23T20:36:36.491Z,29.77
2022-09-23T20:39:09.422Z,33.58
2022-09-23T20:41:38.137Z,38.40
2022-09-23T20:44:09.770Z,39.80
2022-09-23T20:46:37.017Z,37.45
2022-09-23T20:49:04.555Z,37.80
2022-09-23T20:51:33.639Z,37.42
2022-09-23T20:54:01.158Z,35.70
2022-09-23T20:56:29.511Z,36.67
2022-09-23T20:59:04.242Z,34.58
2022-09-23T21:01:37.309Z,32.85
2022-09-23T21:04:06.119Z,34.67
2022-09-23T21:06:35.689Z,37.42
2022-09-23T21:09:03.556Z,36.60
2022-09-23T21:11:31.485Z,38.20
2022-09-23T21:14:00.724Z,37.42
2022-09-23T21:16:27.714Z,45.53
2022-09-23T21:18:54.731Z,52.00
2022-09-23T21:21:22.571Z,52.55
2022-09-23T21:23:51.138Z,44.30
2022-09-23T21:26:22.190Z,39.13
2022-09-23T21:28:55.854Z,41.60
2022-09-23T21:31:26.006Z,40.45
2022-09-23T21:33:56.953Z,40.97
2022-09-23T21:36:25.009Z,37.78
2022-09-23T21:38:52.652Z,43.42
2022-09-23T21:41:20.161Z,43.58
2022-09-23T21:43:48.554Z,41.50
2022-09-23T21:46:20.656Z,42.60
2022-09-23T21:48:53.964Z,40.35
2022-09-23T21:51:25.154Z,40.85
2022-09-23T21:53:55.319Z,39.88
2022-09-23T21:56:32.177Z,39.42
2022-09-23T21:59:02.666Z,39.03
2022-09-23T22:01:35.454Z,39.45
2022-09-23T22:04:10.954Z,39.75
2022-09-23T22:06:40.721Z,38.42
2022-09-23T22:09:14.015Z,39.45
2022-09-23T22:12:00.573Z,40.00
2022-09-23T22:14:27.560Z,35.30
2022-09-23T22:16:59.359Z,35.20
2022-09-23T22:19:28.550Z,34.08
2022-09-23T22:21:56.412Z,33.38
2022-09-23T22:24:23.590Z,32.55
2022-09-23T22:26:51.031Z,37.13
2022-09-23T22:29:37.987Z,38.58
2022-09-23T22:32:28.658Z,37.00
2022-09-23T22:34:56.420Z,37.03
2022-09-23T22:37:34.385Z,41.83
2022-09-23T22:40:02.799Z,40.50
2022-09-23T22:42:30.416Z,41.30
2022-09-23T22:44:57.564Z,40.58
2022-09-23T22:47:24.714Z,38.25
2022-09-23T22:49:54.898Z,39.97
2022-09-23T22:52:24.735Z,40.40
2022-09-23T22:54:52.646Z,38.50
2022-09-23T22:57:19.932Z,37.80
2022-09-23T22:59:50.653Z,36.30
2022-09-23T23:02:19.239Z,37.80
2022-09-23T23:04:50.065Z,36.63
2022-09-23T23:07:22.723Z,34.80
2022-09-23T23:09:50.919Z,34.03
2022-09-23T23:12:20.469Z,33.28
2022-09-23T23:14:48.872Z,32.33
2022-09-23T23:17:16.387Z,28.92
2022-09-23T23:19:43.466Z,28.15
2022-09-23T23:22:10.718Z,30.52
2022-09-23T23:24:37.809Z,30.20
2022-09-23T23:27:04.780Z,28.63
2022-09-23T23:29:31.710Z,29.90
2022-09-23T23:31:58.657Z,28.63
2022-09-23T23:34:25.818Z,28.08
2022-09-23T23:36:56.433Z,27.33
2022-09-23T23:39:25.189Z,26.55
2022-09-23T23:41:55.222Z,28.65
2022-09-23T23:44:24.127Z,25.83
2022-09-23T23:46:51.566Z,26.48
2022-09-23T23:49:18.710Z,27.27
2022-09-23T23:51:45.920Z,27.70
2022-09-23T23:54:13.157Z,29.67
2022-09-23T23:56:40.148Z,28.35
2022-09-23T23:59:07.301Z,26.15
